This is the latest recevied weather packets stored in our database for station/object KC4JY. If no packets are shown the sender has not sent any weather packets the latest 10 day(s).
| Time | Temp. | Humidity | Pressure | Rain* | Wind** | Luminosity | Snow |
|---|---|---|---|---|---|---|---|
| 1777225555 | 13.33° C | 89% | 1014.3 hPa | 0 mm | - | - | - |
| 1777224653 | 13.89° C | 90% | 1014.1 hPa | 0 mm | - | - | - |
| 1777223739 | 13.89° C | 91% | 1014.1 hPa | 0 mm | - | - | - |
| 1777222836 | 13.89° C | 90% | 1014 hPa | 0 mm | - | - | - |
| 1777221921 | 13.89° C | 92% | 1013.9 hPa | 0 mm | - | - | - |
| 1777221012 | 13.89° C | 92% | 1014.1 hPa | 0 mm | - | - | - |
| 1777220171 | 13.89° C | 93% | 1014 hPa | 0 mm | - | - | - |
| 1777219251 | 13.89° C | 93% | 1013.9 hPa | 0 mm | - | - | - |
| 1777218348 | 13.89° C | 92% | 1013.6 hPa | 0 mm | - | - | - |
| 1777217432 | 14.44° C | 92% | 1013.5 hPa | 0 mm | - | - | - |
| 1777216532 | 15° C | 91% | 1013.3 hPa | 0 mm | - | - | - |
| 1777215603 | 17.22° C | 92% | 1012.9 hPa | 0 mm | - | - | - |
| 1777214705 | 17.22° C | 93% | 1012.9 hPa | 0 mm | - | - | - |
| 1777213843 | 17.78° C | 93% | 1012.7 hPa | 0 mm | - | - | - |
| 1777212943 | 17.78° C | 93% | 1012.6 hPa | 0 mm | - | - | - |
| 1777212027 | 17.22° C | 94% | 1012.5 hPa | 0 mm | - | - | - |
| 1777211123 | 17.22° C | 93% | 1012.4 hPa | 0 mm | - | - | - |
| 1777210204 | 17.22° C | 94% | 1012.3 hPa | 0 mm | - | - | - |
| 1777209303 | 17.22° C | 94% | 1012.2 hPa | 0 mm | - | - | - |
| 1777208447 | 16.67° C | 94% | 1012.1 hPa | 0 mm | - | - | - |
| 1777207541 | 16.67° C | 94% | 1012.1 hPa | 0 mm | - | - | - |
| 1777206623 | 16.67° C | 94% | 1012 hPa | 0 mm | - | - | - |
| 1777205718 | - | - | 1012 hPa | 0 mm | - | - | - |
| 1777204859 | - | - | 1011.8 hPa | 0 mm | - | - | - |
| 1777203953 | - | - | 1011.6 hPa | 0 mm | - | - | - |
* Rain latest hour (hover to see other rain measurements)
** Current wind speed in m/s (hover to see current wind gust speed)